sensor_id;sensor_type;location;lat;lon;timestamp;P1;durP1;ratioP1;P2;durP2;ratioP2
67248;SDS011;63247;54.300;18.592;2023-09-19T00:02:12;32.35;;;21.80;;
67248;SDS011;63247;54.300;18.592;2023-09-19T00:04:37;35.47;;;22.87;;
67248;SDS011;63247;54.300;18.592;2023-09-19T00:07:04;31.15;;;21.00;;
67248;SDS011;63247;54.300;18.592;2023-09-19T00:09:30;33.30;;;21.88;;
67248;SDS011;63247;54.300;18.592;2023-09-19T00:12:01;30.73;;;21.58;;
67248;SDS011;63247;54.300;18.592;2023-09-19T00:14:28;32.78;;;21.52;;
67248;SDS011;63247;54.300;18.592;2023-09-19T00:16:53;31.13;;;21.77;;
67248;SDS011;63247;54.300;18.592;2023-09-19T00:19:19;30.23;;;21.58;;
67248;SDS011;63247;54.300;18.592;2023-09-19T00:21:45;32.07;;;21.20;;
67248;SDS011;63247;54.300;18.592;2023-09-19T00:24:12;31.27;;;22.33;;
67248;SDS011;63247;54.300;18.592;2023-09-19T00:26:39;31.73;;;21.30;;
67248;SDS011;63247;54.300;18.592;2023-09-19T00:29:04;32.73;;;21.80;;
67248;SDS011;63247;54.300;18.592;2023-09-19T00:31:33;34.80;;;21.55;;
67248;SDS011;63247;54.300;18.592;2023-09-19T00:33:59;31.95;;;21.75;;
67248;SDS011;63247;54.300;18.592;2023-09-19T00:36:31;34.13;;;21.77;;
67248;SDS011;63247;54.300;18.592;2023-09-19T00:38:58;33.30;;;21.58;;
67248;SDS011;63247;54.300;18.592;2023-09-19T00:41:24;33.70;;;22.60;;
67248;SDS011;63247;54.300;18.592;2023-09-19T00:43:50;34.22;;;22.45;;
67248;SDS011;63247;54.300;18.592;2023-09-19T00:46:18;32.85;;;22.05;;
67248;SDS011;63247;54.300;18.592;2023-09-19T00:48:43;32.03;;;21.70;;
67248;SDS011;63247;54.300;18.592;2023-09-19T00:51:09;34.13;;;21.80;;
67248;SDS011;63247;54.300;18.592;2023-09-19T00:53:35;33.27;;;22.70;;
67248;SDS011;63247;54.300;18.592;2023-09-19T00:56:02;36.25;;;22.60;;
67248;SDS011;63247;54.300;18.592;2023-09-19T00:58:32;32.83;;;22.50;;
67248;SDS011;63247;54.300;18.592;2023-09-19T01:00:58;34.30;;;22.17;;
67248;SDS011;63247;54.300;18.592;2023-09-19T01:03:24;34.23;;;23.37;;
67248;SDS011;63247;54.300;18.592;2023-09-19T01:05:49;35.67;;;23.03;;
67248;SDS011;63247;54.300;18.592;2023-09-19T01:08:15;35.67;;;23.53;;
67248;SDS011;63247;54.300;18.592;2023-09-19T01:10:44;33.23;;;23.47;;
67248;SDS011;63247;54.300;18.592;2023-09-19T01:13:26;37.42;;;24.27;;
67248;SDS011;63247;54.300;18.592;2023-09-19T01:22:07;34.77;;;23.50;;
67248;SDS011;63247;54.300;18.592;2023-09-19T01:25:19;37.50;;;23.95;;
67248;SDS011;63247;54.300;18.592;2023-09-19T01:27:40;37.40;;;24.45;;
67248;SDS011;63247;54.300;18.592;2023-09-19T01:30:26;35.97;;;24.38;;
67248;SDS011;63247;54.300;18.592;2023-09-19T01:32:56;36.72;;;24.63;;
67248;SDS011;63247;54.300;18.592;2023-09-19T01:35:22;36.80;;;24.77;;
67248;SDS011;63247;54.300;18.592;2023-09-19T01:37:48;37.45;;;25.25;;
67248;SDS011;63247;54.300;18.592;2023-09-19T01:40:15;34.25;;;23.95;;
67248;SDS011;63247;54.300;18.592;2023-09-19T01:42:49;39.97;;;24.90;;
67248;SDS011;63247;54.300;18.592;2023-09-19T01:47:57;38.72;;;24.42;;
67248;SDS011;63247;54.300;18.592;2023-09-19T01:50:44;38.47;;;24.88;;
67248;SDS011;63247;54.300;18.592;2023-09-19T01:53:41;39.05;;;25.60;;
67248;SDS011;63247;54.300;18.592;2023-09-19T01:56:22;36.95;;;23.75;;
67248;SDS011;63247;54.300;18.592;2023-09-19T01:58:53;34.03;;;23.05;;
67248;SDS011;63247;54.300;18.592;2023-09-19T02:01:22;31.60;;;21.85;;
67248;SDS011;63247;54.300;18.592;2023-09-19T02:03:49;32.78;;;21.63;;
67248;SDS011;63247;54.300;18.592;2023-09-19T02:06:15;34.03;;;20.25;;
67248;SDS011;63247;54.300;18.592;2023-09-19T02:08:43;28.13;;;18.30;;
67248;SDS011;63247;54.300;18.592;2023-09-19T02:11:10;30.13;;;18.05;;
67248;SDS011;63247;54.300;18.592;2023-09-19T02:13:35;24.20;;;16.70;;
67248;SDS011;63247;54.300;18.592;2023-09-19T02:16:01;23.33;;;15.82;;
67248;SDS011;63247;54.300;18.592;2023-09-19T02:18:29;27.00;;;15.20;;
67248;SDS011;63247;54.300;18.592;2023-09-19T02:20:55;23.00;;;13.70;;
67248;SDS011;63247;54.300;18.592;2023-09-19T02:23:21;21.70;;;13.83;;
67248;SDS011;63247;54.300;18.592;2023-09-19T02:25:56;20.00;;;13.48;;
67248;SDS011;63247;54.300;18.592;2023-09-19T02:28:29;20.42;;;13.00;;
67248;SDS011;63247;54.300;18.592;2023-09-19T02:30:57;21.38;;;12.10;;
67248;SDS011;63247;54.300;18.592;2023-09-19T02:33:23;17.60;;;11.27;;
67248;SDS011;63247;54.300;18.592;2023-09-19T02:35:49;19.92;;;10.85;;
67248;SDS011;63247;54.300;18.592;2023-09-19T02:38:15;15.73;;;10.30;;
67248;SDS011;63247;54.300;18.592;2023-09-19T02:40:45;19.13;;;10.10;;
67248;SDS011;63247;54.300;18.592;2023-09-19T02:43:11;19.15;;;9.60;;
67248;SDS011;63247;54.300;18.592;2023-09-19T02:45:36;15.60;;;8.73;;
67248;SDS011;63247;54.300;18.592;2023-09-19T02:48:02;16.37;;;9.40;;
67248;SDS011;63247;54.300;18.592;2023-09-19T02:50:27;17.17;;;9.60;;
67248;SDS011;63247;54.300;18.592;2023-09-19T02:52:53;15.50;;;9.13;;
67248;SDS011;63247;54.300;18.592;2023-09-19T02:55:18;14.63;;;8.30;;
67248;SDS011;63247;54.300;18.592;2023-09-19T02:57:48;14.52;;;8.48;;
67248;SDS011;63247;54.300;18.592;2023-09-19T03:00:15;14.20;;;8.30;;
67248;SDS011;63247;54.300;18.592;2023-09-19T03:02:41;14.95;;;8.45;;
67248;SDS011;63247;54.300;18.592;2023-09-19T03:05:08;13.20;;;8.25;;
67248;SDS011;63247;54.300;18.592;2023-09-19T03:07:36;14.23;;;8.70;;
67248;SDS011;63247;54.300;18.592;2023-09-19T03:10:02;14.10;;;7.90;;
67248;SDS011;63247;54.300;18.592;2023-09-19T03:12:28;12.82;;;7.10;;
67248;SDS011;63247;54.300;18.592;2023-09-19T03:14:54;13.23;;;6.95;;
67248;SDS011;63247;54.300;18.592;2023-09-19T03:17:20;11.52;;;6.28;;
67248;SDS011;63247;54.300;18.592;2023-09-19T03:19:46;11.85;;;6.45;;
67248;SDS011;63247;54.300;18.592;2023-09-19T03:22:12;12.07;;;6.57;;
67248;SDS011;63247;54.300;18.592;2023-09-19T03:24:38;11.48;;;6.88;;
67248;SDS011;63247;54.300;18.592;2023-09-19T03:27:04;12.87;;;6.90;;
67248;SDS011;63247;54.300;18.592;2023-09-19T03:29:29;13.53;;;6.43;;
67248;SDS011;63247;54.300;18.592;2023-09-19T03:31:55;11.50;;;5.70;;
67248;SDS011;63247;54.300;18.592;2023-09-19T03:34:20;10.73;;;5.63;;
67248;SDS011;63247;54.300;18.592;2023-09-19T03:36:47;11.50;;;6.10;;
67248;SDS011;63247;54.300;18.592;2023-09-19T03:39:12;10.97;;;5.73;;
67248;SDS011;63247;54.300;18.592;2023-09-19T03:41:40;12.13;;;5.80;;
67248;SDS011;63247;54.300;18.592;2023-09-19T03:44:05;11.03;;;5.77;;
67248;SDS011;63247;54.300;18.592;2023-09-19T03:46:30;11.63;;;6.00;;
67248;SDS011;63247;54.300;18.592;2023-09-19T03:48:57;10.40;;;6.07;;
67248;SDS011;63247;54.300;18.592;2023-09-19T03:51:22;11.90;;;6.00;;
67248;SDS011;63247;54.300;18.592;2023-09-19T03:53:48;12.13;;;6.28;;
67248;SDS011;63247;54.300;18.592;2023-09-19T03:56:15;10.93;;;5.80;;
67248;SDS011;63247;54.300;18.592;2023-09-19T03:58:40;13.43;;;6.27;;
67248;SDS011;63247;54.300;18.592;2023-09-19T04:01:06;11.20;;;5.90;;
67248;SDS011;63247;54.300;18.592;2023-09-19T04:03:32;15.15;;;6.25;;
67248;SDS011;63247;54.300;18.592;2023-09-19T04:06:18;10.88;;;5.90;;
67248;SDS011;63247;54.300;18.592;2023-09-19T04:08:43;10.68;;;5.75;;
67248;SDS011;63247;54.300;18.592;2023-09-19T04:11:09;14.23;;;8.45;;
67248;SDS011;63247;54.300;18.592;2023-09-19T04:13:35;14.00;;;7.13;;
67248;SDS011;63247;54.300;18.592;2023-09-19T04:16:01;30.43;;;23.07;;
67248;SDS011;63247;54.300;18.592;2023-09-19T04:18:29;17.48;;;10.27;;
67248;SDS011;63247;54.300;18.592;2023-09-19T04:20:57;18.35;;;10.77;;
67248;SDS011;63247;54.300;18.592;2023-09-19T04:23:23;60.77;;;54.40;;
67248;SDS011;63247;54.300;18.592;2023-09-19T04:25:48;39.27;;;30.80;;
67248;SDS011;63247;54.300;18.592;2023-09-19T04:28:14;16.80;;;11.50;;
67248;SDS011;63247;54.300;18.592;2023-09-19T04:30:40;16.52;;;9.80;;
67248;SDS011;63247;54.300;18.592;2023-09-19T04:33:06;19.20;;;12.25;;
67248;SDS011;63247;54.300;18.592;2023-09-19T04:35:31;17.63;;;10.68;;
67248;SDS011;63247;54.300;18.592;2023-09-19T04:37:57;18.33;;;10.50;;
67248;SDS011;63247;54.300;18.592;2023-09-19T04:40:23;17.75;;;8.95;;
67248;SDS011;63247;54.300;18.592;2023-09-19T04:42:54;15.65;;;9.10;;
67248;SDS011;63247;54.300;18.592;2023-09-19T04:45:23;15.75;;;9.00;;
67248;SDS011;63247;54.300;18.592;2023-09-19T04:47:49;15.70;;;8.80;;
67248;SDS011;63247;54.300;18.592;2023-09-19T04:50:14;18.47;;;9.57;;
67248;SDS011;63247;54.300;18.592;2023-09-19T04:52:43;16.85;;;8.48;;
67248;SDS011;63247;54.300;18.592;2023-09-19T04:55:12;17.30;;;9.17;;
67248;SDS011;63247;54.300;18.592;2023-09-19T04:57:45;19.25;;;9.40;;
67248;SDS011;63247;54.300;18.592;2023-09-19T05:00:21;19.27;;;10.10;;
67248;SDS011;63247;54.300;18.592;2023-09-19T05:02:53;19.50;;;10.25;;
67248;SDS011;63247;54.300;18.592;2023-09-19T05:05:21;19.17;;;10.20;;
67248;SDS011;63247;54.300;18.592;2023-09-19T05:07:47;19.33;;;10.43;;
67248;SDS011;63247;54.300;18.592;2023-09-19T05:10:13;20.25;;;10.73;;
67248;SDS011;63247;54.300;18.592;2023-09-19T05:12:39;19.00;;;10.20;;
67248;SDS011;63247;54.300;18.592;2023-09-19T05:15:05;23.42;;;10.13;;
67248;SDS011;63247;54.300;18.592;2023-09-19T05:17:34;18.98;;;10.50;;
67248;SDS011;63247;54.300;18.592;2023-09-19T05:20:01;19.55;;;10.25;;
67248;SDS011;63247;54.300;18.592;2023-09-19T05:22:40;18.60;;;9.88;;
67248;SDS011;63247;54.300;18.592;2023-09-19T05:25:11;17.83;;;9.75;;
67248;SDS011;63247;54.300;18.592;2023-09-19T05:27:41;18.55;;;10.02;;
67248;SDS011;63247;54.300;18.592;2023-09-19T05:30:07;20.08;;;10.40;;
67248;SDS011;63247;54.300;18.592;2023-09-19T05:32:33;19.05;;;10.00;;
67248;SDS011;63247;54.300;18.592;2023-09-19T05:34:58;17.17;;;9.23;;
67248;SDS011;63247;54.300;18.592;2023-09-19T05:37:23;15.17;;;9.47;;
67248;SDS011;63247;54.300;18.592;2023-09-19T05:39:51;18.85;;;9.85;;
67248;SDS011;63247;54.300;18.592;2023-09-19T05:42:16;19.13;;;10.20;;
67248;SDS011;63247;54.300;18.592;2023-09-19T05:44:42;18.77;;;10.15;;
67248;SDS011;63247;54.300;18.592;2023-09-19T05:47:07;19.13;;;10.37;;
67248;SDS011;63247;54.300;18.592;2023-09-19T05:49:34;18.23;;;9.73;;
67248;SDS011;63247;54.300;18.592;2023-09-19T05:52:03;21.65;;;10.88;;
67248;SDS011;63247;54.300;18.592;2023-09-19T05:54:32;18.02;;;9.35;;
67248;SDS011;63247;54.300;18.592;2023-09-19T05:56:59;15.53;;;9.23;;
67248;SDS011;63247;54.300;18.592;2023-09-19T05:59:25;17.38;;;9.55;;
67248;SDS011;63247;54.300;18.592;2023-09-19T06:01:50;18.73;;;9.57;;
67248;SDS011;63247;54.300;18.592;2023-09-19T06:04:17;17.20;;;9.27;;
67248;SDS011;63247;54.300;18.592;2023-09-19T06:06:43;17.92;;;9.07;;
67248;SDS011;63247;54.300;18.592;2023-09-19T06:09:09;16.48;;;8.90;;
67248;SDS011;63247;54.300;18.592;2023-09-19T06:11:35;15.68;;;8.68;;
67248;SDS011;63247;54.300;18.592;2023-09-19T06:14:01;17.00;;;9.10;;
67248;SDS011;63247;54.300;18.592;2023-09-19T06:16:29;12.75;;;7.80;;
67248;SDS011;63247;54.300;18.592;2023-09-19T06:18:57;15.20;;;7.90;;
67248;SDS011;63247;54.300;18.592;2023-09-19T06:21:24;13.70;;;8.25;;
67248;SDS011;63247;54.300;18.592;2023-09-19T06:23:51;16.40;;;7.68;;
67248;SDS011;63247;54.300;18.592;2023-09-19T06:26:17;14.93;;;7.40;;
67248;SDS011;63247;54.300;18.592;2023-09-19T06:28:42;11.73;;;6.90;;
67248;SDS011;63247;54.300;18.592;2023-09-19T06:31:09;12.15;;;6.47;;
67248;SDS011;63247;54.300;18.592;2023-09-19T06:33:38;13.07;;;6.70;;
67248;SDS011;63247;54.300;18.592;2023-09-19T06:36:04;11.88;;;6.57;;
67248;SDS011;63247;54.300;18.592;2023-09-19T06:38:30;11.90;;;6.25;;
67248;SDS011;63247;54.300;18.592;2023-09-19T06:40:58;9.57;;;5.97;;
67248;SDS011;63247;54.300;18.592;2023-09-19T06:43:23;13.80;;;6.10;;
67248;SDS011;63247;54.300;18.592;2023-09-19T06:45:49;11.97;;;6.40;;
67248;SDS011;63247;54.300;18.592;2023-09-19T06:48:16;10.88;;;6.10;;
67248;SDS011;63247;54.300;18.592;2023-09-19T06:50:42;18.55;;;6.57;;
67248;SDS011;63247;54.300;18.592;2023-09-19T06:53:09;10.23;;;6.43;;
67248;SDS011;63247;54.300;18.592;2023-09-19T06:55:35;10.97;;;6.63;;
67248;SDS011;63247;54.300;18.592;2023-09-19T06:58:01;10.80;;;6.28;;
67248;SDS011;63247;54.300;18.592;2023-09-19T07:00:27;11.07;;;6.45;;
67248;SDS011;63247;54.300;18.592;2023-09-19T07:03:00;12.73;;;6.53;;
67248;SDS011;63247;54.300;18.592;2023-09-19T07:05:28;9.93;;;6.07;;
67248;SDS011;63247;54.300;18.592;2023-09-19T07:07:54;11.57;;;6.13;;
67248;SDS011;63247;54.300;18.592;2023-09-19T07:10:29;10.35;;;5.82;;
67248;SDS011;63247;54.300;18.592;2023-09-19T07:15:24;11.93;;;6.03;;
67248;SDS011;63247;54.300;18.592;2023-09-19T07:17:51;14.23;;;6.13;;
67248;SDS011;63247;54.300;18.592;2023-09-19T07:20:18;9.00;;;5.53;;
67248;SDS011;63247;54.300;18.592;2023-09-19T07:22:44;10.10;;;5.87;;
67248;SDS011;63247;54.300;18.592;2023-09-19T07:25:09;10.00;;;5.35;;
67248;SDS011;63247;54.300;18.592;2023-09-19T07:27:35;9.40;;;5.10;;
67248;SDS011;63247;54.300;18.592;2023-09-19T07:30:00;9.17;;;5.40;;
67248;SDS011;63247;54.300;18.592;2023-09-19T07:32:25;8.40;;;5.43;;
67248;SDS011;63247;54.300;18.592;2023-09-19T07:34:51;9.20;;;5.70;;
67248;SDS011;63247;54.300;18.592;2023-09-19T07:37:16;10.13;;;5.67;;
67248;SDS011;63247;54.300;18.592;2023-09-19T07:39:42;9.60;;;5.40;;
67248;SDS011;63247;54.300;18.592;2023-09-19T07:42:08;10.43;;;5.85;;
67248;SDS011;63247;54.300;18.592;2023-09-19T07:44:35;8.43;;;5.72;;
67248;SDS011;63247;54.300;18.592;2023-09-19T07:47:01;10.43;;;6.00;;
67248;SDS011;63247;54.300;18.592;2023-09-19T07:49:28;8.70;;;5.40;;
67248;SDS011;63247;54.300;18.592;2023-09-19T07:51:53;12.40;;;6.03;;
67248;SDS011;63247;54.300;18.592;2023-09-19T07:54:19;9.70;;;5.65;;
67248;SDS011;63247;54.300;18.592;2023-09-19T07:56:45;11.95;;;5.90;;
67248;SDS011;63247;54.300;18.592;2023-09-19T07:59:11;10.32;;;5.88;;
67248;SDS011;63247;54.300;18.592;2023-09-19T08:01:37;9.30;;;6.00;;
67248;SDS011;63247;54.300;18.592;2023-09-19T08:04:02;12.50;;;6.27;;
67248;SDS011;63247;54.300;18.592;2023-09-19T08:06:28;10.35;;;5.63;;
67248;SDS011;63247;54.300;18.592;2023-09-19T08:08:54;10.90;;;6.00;;
67248;SDS011;63247;54.300;18.592;2023-09-19T08:11:22;9.82;;;6.05;;
67248;SDS011;63247;54.300;18.592;2023-09-19T08:13:49;9.63;;;5.70;;
67248;SDS011;63247;54.300;18.592;2023-09-19T08:16:15;10.05;;;5.57;;
67248;SDS011;63247;54.300;18.592;2023-09-19T08:18:41;8.80;;;5.67;;
67248;SDS011;63247;54.300;18.592;2023-09-19T08:21:07;10.23;;;6.10;;
67248;SDS011;63247;54.300;18.592;2023-09-19T08:23:35;8.77;;;5.13;;
67248;SDS011;63247;54.300;18.592;2023-09-19T08:26:01;8.97;;;5.10;;
67248;SDS011;63247;54.300;18.592;2023-09-19T08:28:32;8.95;;;4.25;;
67248;SDS011;63247;54.300;18.592;2023-09-19T08:31:01;7.97;;;4.32;;
67248;SDS011;63247;54.300;18.592;2023-09-19T08:33:33;7.30;;;4.23;;
67248;SDS011;63247;54.300;18.592;2023-09-19T08:36:00;7.28;;;3.78;;
67248;SDS011;63247;54.300;18.592;2023-09-19T08:38:26;7.55;;;4.22;;
67248;SDS011;63247;54.300;18.592;2023-09-19T08:41:05;6.75;;;4.20;;
67248;SDS011;63247;54.300;18.592;2023-09-19T08:43:33;7.30;;;3.85;;
67248;SDS011;63247;54.300;18.592;2023-09-19T08:46:20;6.63;;;3.77;;
67248;SDS011;63247;54.300;18.592;2023-09-19T08:48:46;7.10;;;4.00;;
67248;SDS011;63247;54.300;18.592;2023-09-19T08:51:18;9.35;;;3.80;;
67248;SDS011;63247;54.300;18.592;2023-09-19T08:54:06;10.25;;;3.80;;
67248;SDS011;63247;54.300;18.592;2023-09-19T08:56:33;8.75;;;3.47;;
67248;SDS011;63247;54.300;18.592;2023-09-19T08:59:05;6.37;;;3.40;;
67248;SDS011;63247;54.300;18.592;2023-09-19T09:01:33;6.18;;;3.25;;
67248;SDS011;63247;54.300;18.592;2023-09-19T09:04:01;7.43;;;3.47;;
67248;SDS011;63247;54.300;18.592;2023-09-19T09:06:27;5.85;;;2.83;;
67248;SDS011;63247;54.300;18.592;2023-09-19T09:08:57;5.75;;;2.90;;
67248;SDS011;63247;54.300;18.592;2023-09-19T09:11:23;4.70;;;2.90;;
67248;SDS011;63247;54.300;18.592;2023-09-19T09:13:50;5.90;;;3.08;;
67248;SDS011;63247;54.300;18.592;2023-09-19T09:16:15;6.10;;;3.50;;
67248;SDS011;63247;54.300;18.592;2023-09-19T09:18:44;7.30;;;3.20;;
67248;SDS011;63247;54.300;18.592;2023-09-19T09:21:10;6.93;;;3.08;;
67248;SDS011;63247;54.300;18.592;2023-09-19T09:23:37;7.20;;;3.30;;
67248;SDS011;63247;54.300;18.592;2023-09-19T09:26:03;8.45;;;3.03;;
67248;SDS011;63247;54.300;18.592;2023-09-19T09:28:31;8.23;;;3.07;;
67248;SDS011;63247;54.300;18.592;2023-09-19T09:30:58;6.57;;;2.78;;
67248;SDS011;63247;54.300;18.592;2023-09-19T09:33:24;7.20;;;2.72;;
67248;SDS011;63247;54.300;18.592;2023-09-19T09:35:51;4.43;;;2.70;;
67248;SDS011;63247;54.300;18.592;2023-09-19T09:38:25;5.93;;;2.80;;
67248;SDS011;63247;54.300;18.592;2023-09-19T09:40:52;7.85;;;2.55;;
67248;SDS011;63247;54.300;18.592;2023-09-19T09:43:40;5.95;;;2.60;;
67248;SDS011;63247;54.300;18.592;2023-09-19T09:51:39;8.20;;;2.73;;
67248;SDS011;63247;54.300;18.592;2023-09-19T09:54:17;4.72;;;2.70;;
67248;SDS011;63247;54.300;18.592;2023-09-19T09:56:56;5.45;;;2.65;;
67248;SDS011;63247;54.300;18.592;2023-09-19T09:59:45;6.93;;;2.90;;
67248;SDS011;63247;54.300;18.592;2023-09-19T10:02:16;3.97;;;2.15;;
67248;SDS011;63247;54.300;18.592;2023-09-19T10:04:52;4.33;;;2.20;;
67248;SDS011;63247;54.300;18.592;2023-09-19T10:07:28;6.53;;;2.70;;
67248;SDS011;63247;54.300;18.592;2023-09-19T10:10:04;5.05;;;2.20;;
67248;SDS011;63247;54.300;18.592;2023-09-19T10:12:46;5.05;;;2.38;;
67248;SDS011;63247;54.300;18.592;2023-09-19T10:15:16;4.30;;;2.40;;
67248;SDS011;63247;54.300;18.592;2023-09-19T10:17:45;4.20;;;2.40;;
67248;SDS011;63247;54.300;18.592;2023-09-19T10:20:17;4.53;;;2.42;;
67248;SDS011;63247;54.300;18.592;2023-09-19T10:22:52;4.65;;;2.53;;
67248;SDS011;63247;54.300;18.592;2023-09-19T10:25:28;5.53;;;2.88;;
67248;SDS011;63247;54.300;18.592;2023-09-19T10:27:54;4.72;;;2.40;;
67248;SDS011;63247;54.300;18.592;2023-09-19T10:30:20;6.38;;;2.65;;
67248;SDS011;63247;54.300;18.592;2023-09-19T10:32:49;5.28;;;2.55;;
67248;SDS011;63247;54.300;18.592;2023-09-19T10:35:24;6.30;;;2.47;;
67248;SDS011;63247;54.300;18.592;2023-09-19T10:37:50;6.15;;;2.78;;
67248;SDS011;63247;54.300;18.592;2023-09-19T10:40:19;7.13;;;2.60;;
67248;SDS011;63247;54.300;18.592;2023-09-19T10:42:46;6.03;;;2.55;;
67248;SDS011;63247;54.300;18.592;2023-09-19T10:45:15;5.70;;;2.28;;
67248;SDS011;63247;54.300;18.592;2023-09-19T10:47:45;6.10;;;2.58;;
67248;SDS011;63247;54.300;18.592;2023-09-19T10:50:19;4.85;;;2.30;;
67248;SDS011;63247;54.300;18.592;2023-09-19T10:52:47;3.40;;;2.13;;
67248;SDS011;63247;54.300;18.592;2023-09-19T10:55:18;5.18;;;2.20;;
67248;SDS011;63247;54.300;18.592;2023-09-19T10:57:47;5.00;;;2.30;;
67248;SDS011;63247;54.300;18.592;2023-09-19T11:00:13;7.03;;;2.38;;
67248;SDS011;63247;54.300;18.592;2023-09-19T11:05:37;4.70;;;1.90;;
67248;SDS011;63247;54.300;18.592;2023-09-19T11:08:09;6.70;;;2.43;;
67248;SDS011;63247;54.300;18.592;2023-09-19T11:10:44;5.70;;;2.20;;
67248;SDS011;63247;54.300;18.592;2023-09-19T11:26:49;4.05;;;2.10;;
67248;SDS011;63247;54.300;18.592;2023-09-19T11:29:24;6.13;;;2.17;;
67248;SDS011;63247;54.300;18.592;2023-09-19T11:31:50;4.68;;;2.05;;
67248;SDS011;63247;54.300;18.592;2023-09-19T11:39:36;7.05;;;2.25;;
67248;SDS011;63247;54.300;18.592;2023-09-19T11:42:05;5.78;;;2.15;;
67248;SDS011;63247;54.300;18.592;2023-09-19T11:45:07;5.07;;;2.10;;
67248;SDS011;63247;54.300;18.592;2023-09-19T11:47:32;6.43;;;2.00;;
67248;SDS011;63247;54.300;18.592;2023-09-19T11:50:00;5.85;;;2.10;;
67248;SDS011;63247;54.300;18.592;2023-09-19T11:52:27;8.73;;;2.15;;
67248;SDS011;63247;54.300;18.592;2023-09-19T11:54:59;8.87;;;2.20;;
67248;SDS011;63247;54.300;18.592;2023-09-19T11:57:26;5.13;;;1.95;;
67248;SDS011;63247;54.300;18.592;2023-09-19T11:59:53;4.03;;;2.10;;
67248;SDS011;63247;54.300;18.592;2023-09-19T12:02:27;4.78;;;2.20;;
67248;SDS011;63247;54.300;18.592;2023-09-19T12:05:04;5.80;;;1.95;;
67248;SDS011;63247;54.300;18.592;2023-09-19T12:07:30;6.17;;;1.70;;
67248;SDS011;63247;54.300;18.592;2023-09-19T12:10:07;5.68;;;2.10;;
67248;SDS011;63247;54.300;18.592;2023-09-19T12:12:36;7.53;;;2.10;;
67248;SDS011;63247;54.300;18.592;2023-09-19T12:15:02;5.17;;;1.80;;
67248;SDS011;63247;54.300;18.592;2023-09-19T12:17:38;5.57;;;1.90;;
67248;SDS011;63247;54.300;18.592;2023-09-19T12:20:07;4.15;;;1.80;;
67248;SDS011;63247;54.300;18.592;2023-09-19T12:22:43;5.30;;;1.92;;
67248;SDS011;63247;54.300;18.592;2023-09-19T12:25:10;5.05;;;1.63;;
67248;SDS011;63247;54.300;18.592;2023-09-19T12:27:46;4.70;;;1.80;;
67248;SDS011;63247;54.300;18.592;2023-09-19T12:30:13;5.35;;;1.80;;
67248;SDS011;63247;54.300;18.592;2023-09-19T12:32:40;3.88;;;1.95;;
67248;SDS011;63247;54.300;18.592;2023-09-19T12:35:08;5.97;;;2.17;;
67248;SDS011;63247;54.300;18.592;2023-09-19T12:37:36;5.28;;;1.88;;
67248;SDS011;63247;54.300;18.592;2023-09-19T12:40:06;3.50;;;1.92;;
67248;SDS011;63247;54.300;18.592;2023-09-19T12:42:43;5.68;;;2.17;;
67248;SDS011;63247;54.300;18.592;2023-09-19T12:45:11;4.38;;;2.00;;
67248;SDS011;63247;54.300;18.592;2023-09-19T12:47:38;5.40;;;1.90;;
67248;SDS011;63247;54.300;18.592;2023-09-19T12:50:12;7.90;;;2.15;;
67248;SDS011;63247;54.300;18.592;2023-09-19T12:52:44;5.22;;;2.00;;
67248;SDS011;63247;54.300;18.592;2023-09-19T12:55:21;4.75;;;1.88;;
67248;SDS011;63247;54.300;18.592;2023-09-19T12:58:01;6.25;;;2.00;;
67248;SDS011;63247;54.300;18.592;2023-09-19T13:03:28;4.78;;;2.00;;
67248;SDS011;63247;54.300;18.592;2023-09-19T13:06:03;5.82;;;2.10;;
67248;SDS011;63247;54.300;18.592;2023-09-19T13:08:31;6.60;;;2.10;;
67248;SDS011;63247;54.300;18.592;2023-09-19T13:13:46;5.93;;;2.08;;
67248;SDS011;63247;54.300;18.592;2023-09-19T13:16:19;7.07;;;2.20;;
67248;SDS011;63247;54.300;18.592;2023-09-19T13:18:48;4.93;;;2.00;;
67248;SDS011;63247;54.300;18.592;2023-09-19T13:21:27;4.32;;;1.67;;
67248;SDS011;63247;54.300;18.592;2023-09-19T13:23:54;5.47;;;2.00;;
67248;SDS011;63247;54.300;18.592;2023-09-19T13:26:24;4.20;;;1.80;;
67248;SDS011;63247;54.300;18.592;2023-09-19T13:28:53;5.38;;;2.10;;
67248;SDS011;63247;54.300;18.592;2023-09-19T13:31:19;8.13;;;2.25;;
67248;SDS011;63247;54.300;18.592;2023-09-19T13:33:45;4.63;;;2.00;;
67248;SDS011;63247;54.300;18.592;2023-09-19T13:36:12;4.97;;;1.80;;
67248;SDS011;63247;54.300;18.592;2023-09-19T13:38:40;5.70;;;1.80;;
67248;SDS011;63247;54.300;18.592;2023-09-19T13:41:09;3.80;;;1.70;;
67248;SDS011;63247;54.300;18.592;2023-09-19T13:43:36;4.75;;;1.70;;
67248;SDS011;63247;54.300;18.592;2023-09-19T13:46:04;5.15;;;1.70;;
67248;SDS011;63247;54.300;18.592;2023-09-19T13:48:30;4.03;;;1.70;;
67248;SDS011;63247;54.300;18.592;2023-09-19T13:50:55;4.17;;;1.70;;
67248;SDS011;63247;54.300;18.592;2023-09-19T13:53:21;7.30;;;2.00;;
67248;SDS011;63247;54.300;18.592;2023-09-19T13:55:47;4.18;;;1.92;;
67248;SDS011;63247;54.300;18.592;2023-09-19T13:58:13;5.47;;;1.75;;
67248;SDS011;63247;54.300;18.592;2023-09-19T14:00:39;5.27;;;1.90;;
67248;SDS011;63247;54.300;18.592;2023-09-19T14:03:04;6.70;;;2.08;;
67248;SDS011;63247;54.300;18.592;2023-09-19T14:05:31;8.43;;;2.07;;
67248;SDS011;63247;54.300;18.592;2023-09-19T14:07:56;4.72;;;1.90;;
67248;SDS011;63247;54.300;18.592;2023-09-19T14:10:24;7.10;;;2.13;;
67248;SDS011;63247;54.300;18.592;2023-09-19T14:12:52;5.75;;;2.00;;
67248;SDS011;63247;54.300;18.592;2023-09-19T14:15:18;5.53;;;2.10;;
67248;SDS011;63247;54.300;18.592;2023-09-19T14:17:43;6.03;;;2.00;;
67248;SDS011;63247;54.300;18.592;2023-09-19T14:20:12;6.15;;;2.10;;
67248;SDS011;63247;54.300;18.592;2023-09-19T14:22:37;6.00;;;2.10;;
67248;SDS011;63247;54.300;18.592;2023-09-19T14:25:04;5.10;;;1.90;;
67248;SDS011;63247;54.300;18.592;2023-09-19T14:27:30;6.32;;;1.92;;
67248;SDS011;63247;54.300;18.592;2023-09-19T14:29:55;5.05;;;1.98;;
67248;SDS011;63247;54.300;18.592;2023-09-19T14:32:22;4.05;;;1.85;;
67248;SDS011;63247;54.300;18.592;2023-09-19T14:34:47;8.70;;;2.13;;
67248;SDS011;63247;54.300;18.592;2023-09-19T14:37:13;4.82;;;2.03;;
67248;SDS011;63247;54.300;18.592;2023-09-19T14:39:41;6.47;;;1.90;;
67248;SDS011;63247;54.300;18.592;2023-09-19T14:42:09;5.40;;;1.90;;
67248;SDS011;63247;54.300;18.592;2023-09-19T14:44:35;7.68;;;2.40;;
67248;SDS011;63247;54.300;18.592;2023-09-19T14:47:02;6.43;;;2.00;;
67248;SDS011;63247;54.300;18.592;2023-09-19T14:49:29;7.95;;;2.10;;
67248;SDS011;63247;54.300;18.592;2023-09-19T14:51:55;6.53;;;2.20;;
67248;SDS011;63247;54.300;18.592;2023-09-19T14:54:20;5.70;;;1.97;;
67248;SDS011;63247;54.300;18.592;2023-09-19T14:56:47;4.18;;;1.90;;
67248;SDS011;63247;54.300;18.592;2023-09-19T14:59:18;4.88;;;2.22;;
67248;SDS011;63247;54.300;18.592;2023-09-19T15:01:45;5.20;;;2.33;;
67248;SDS011;63247;54.300;18.592;2023-09-19T15:04:10;7.57;;;2.40;;
67248;SDS011;63247;54.300;18.592;2023-09-19T15:06:36;5.97;;;2.30;;
67248;SDS011;63247;54.300;18.592;2023-09-19T15:09:01;6.07;;;2.60;;
67248;SDS011;63247;54.300;18.592;2023-09-19T15:11:29;4.78;;;2.10;;
67248;SDS011;63247;54.300;18.592;2023-09-19T15:13:55;6.18;;;2.53;;
67248;SDS011;63247;54.300;18.592;2023-09-19T15:16:21;4.72;;;1.95;;